This demonstration page uses our WeatherBlox Daily Observations layout. Learn more.

Left ArrowRight Arrow

34.74481, -87.66753

Hourly Observations for July 4, 2019

Temp ( °F °C ) Dew Point ( °F °C ) Humidity (%) Winds ( mph kmh ) Pressure ( in mb ) Visibility ( mi km ) Precip ( " mm )
12:53 am 00:53 Clear 77 25 72 22.2 85 85 Calm N/A 10 16 0.00 0.00
1:53 am 01:53 Clear 75 23.9 71 21.7 88 88 Calm N/A 10 16 0.00 0.00
2:53 am 02:53 Clear 75 23.9 71 21.7 88 88 S 3 6 N/A 10 16 0.00 0.00
3:53 am 03:53 Clear 75 23.9 71 21.7 88 88 SSW 5 7 N/A 10 16 0.00 0.00
4:53 am 04:53 Clear 73 22.8 70 21.1 90 90 Calm N/A 10 16 0.00 0.00
5:53 am 05:53 Sunny 73 22.8 70 21.1 90 90 Calm N/A 10 16 0.00 0.00
6:53 am 06:53 Sunny 76 24.4 72 22.2 88 88 Calm N/A 10 16 0.00 0.00
7:53 am 07:53 Sunny 81 27.2 72 22.2 74 74 VRB 5 7 N/A 10 16 0.00 0.00
8:53 am 08:53 Sunny 85 29.4 73 22.8 68 68 Calm N/A 10 16 0.00 0.00
9:53 am 09:53 Sunny 88 31.1 73 22.8 61 61 WSW 10 17 N/A 10 16 0.00 0.00
10:53 am 10:53 Partly Cloudy 90 32.2 72 22.2 56 56 NNW 7 11 N/A 10 16 0.00 0.00
11:53 am 11:53 Partly Cloudy with Nearby Thunderstorms 83 28.3 76 24.4 79 79 SE 7 11 N/A 10 16 0.08 2.03
12:29 pm 12:29 Mostly Sunny 88 31.1 73 22.8 61 61 SSE 9 15 N/A 10 16 0.00 0.00
12:53 pm 12:53 Mostly Cloudy with Light Rain 85 29.4 76 24.4 75 75 Calm N/A 10 16 0.04 1.02
1:53 pm 13:53 Partly Cloudy with Rain 89 31.7 75 23.9 63 63 W 6 9 N/A 10 16 0.01 0.25
2:53 pm 14:53 Partly Cloudy 92 33.3 71 21.7 51 51 SW 8 13 N/A 10 16 0.00 0.03
3:53 pm 15:53 Mostly Cloudy 94 34.4 71 21.7 48 48 VRB 7 11 N/A 10 16 0.00 0.00
4:53 pm 16:53 Partly Cloudy 94 34.4 72 22.2 49 49 WNW 10 17 N/A 10 16 0.00 0.00
5:53 pm 17:53 Sunny 93 33.9 69 20.6 46 46 NW 9 15 N/A 10 16 0.00 0.00
6:53 pm 18:53 Sunny 90 32.2 71 21.7 54 54 WNW 7 11 N/A 10 16 0.00 0.00
7:14 pm 19:14 Sunny with Nearby Thunderstorms 89 31.7 71 21.7 55 55 W 7 11 N/A 10 16 0.00 0.00
7:33 pm 19:33 Mostly Cloudy 85 29.4 71 21.7 63 63 ESE 9 15 N/A 10 16 0.00 0.00
7:41 pm 19:41 Mostly Cloudy with Nearby Thunderstorms 83 28.3 70 21.1 65 65 E 10 17 N/A 10 16 0.00 0.00
7:53 pm 19:53 Cloudy with Nearby Thunderstorms 83 28.3 70 21.1 65 65 E 7 11 N/A 10 16 0.00 0.00
8:04 pm 20:04 Mostly Cloudy with Thunderstorms 82 27.8 70 21.1 67 67 E 13 20 N/A 10 16 0.00 0.00
8:24 pm 20:24 Cloudy 80 26.7 71 21.7 74 74 ESE 9 15 N/A 10 16 0.00 0.00
8:53 pm 20:53 Clear 79 26.1 71 21.7 77 77 Calm N/A 10 16 0.00 0.00
9:53 pm 21:53 Clear 78 25.6 72 22.2 82 82 Calm N/A 10 16 0.00 0.00
10:53 pm 22:53 Clear 76 24.4 72 22.2 88 88 E 6 9 N/A 10 16 0.00 0.00
11:53 pm 23:53 Clear 76 24.4 72 22.2 88 88 ESE 3 6 N/A 10 16 0.00 0.00

Powered by AerisWeather